Date,TemperatureHighF,TemperatureAvgF,TemperatureLowF,DewpointHighF,DewpointAvgF,DewpointLowF,HumidityHigh,HumidityAvg,HumidityLow,PressureMaxIn,PressureMinIn,WindSpeedMaxMPH,WindSpeedAvgMPH,GustSpeedMaxMPH,PrecipitationSumIn
2013-3-1,44.3,37.4,33.7,37.1,31.7,26.5,98,81,58,29.71,29.53,2,0,6,0.00
2013-3-2,38.5,34.1,28.7,28.6,25.7,23.3,83,71,57,29.71,29.64,5,0,6,0.00
2013-3-3,35.3,30.4,26.7,26.7,21.1,16.9,80,68,53,29.70,29.62,4,0,5,0.00
2013-3-4,42.5,32.8,26.0,24.8,20.9,17.6,82,62,46,29.84,29.68,8,1,12,0.00
2013-3-5,46.8,35.7,26.0,28.5,25.2,21.3,86,66,47,29.99,29.83,5,0,8,0.00
2013-3-6,45.8,37.0,31.3,35.1,28.7,26.0,84,72,56,29.99,29.90,5,1,8,0.00
2013-3-7,39.2,35.3,31.9,32.7,28.7,24.6,96,78,60,30.06,29.96,6,1,10,0.00
2013-3-8,38.0,34.0,30.9,34.7,31.4,27.0,97,91,69,30.18,29.98,4,1,8,0.00
2013-3-9,50.7,39.1,30.0,29.0,25.2,22.5,81,60,34,30.26,30.17,5,1,8,0.00
2013-3-10,54.2,39.6,24.7,34.4,27.8,21.9,91,66,37,30.32,30.18,10,2,12,0.00
2013-3-11,52.9,44.6,36.0,45.3,37.7,32.1,90,77,60,30.22,29.99,8,2,13,0.00
2013-3-12,55.9,50.9,40.6,54.8,48.7,39.0,97,92,82,30.03,29.58,7,1,13,0.00
2013-3-13,48.5,39.9,31.8,39.0,30.2,21.9,94,71,35,29.81,29.71,6,1,10,0.00
2013-3-14,38.3,30.7,26.0,28.3,13.7,8.8,82,50,38,29.86,29.77,7,2,15,0.00
2013-3-15,39.6,32.4,22.5,31.4,19.6,9.0,85,60,42,29.88,29.64,9,2,14,0.00
2013-3-16,38.2,33.2,27.6,28.5,21.1,14.2,88,62,41,29.85,29.68,3,0,7,0.00
2013-3-17,39.9,30.1,21.9,25.3,13.4,4.4,88,54,25,30.27,29.81,7,1,8,0.00
2013-3-18,37.3,28.2,17.8,26.4,12.2,5.2,92,54,27,30.38,30.04,3,0,8,0.00
2013-3-19,38.3,32.8,28.1,36.3,31.3,25.7,96,94,90,30.10,29.63,2,0,5,0.00
2013-3-20,41.2,33.0,26.6,31.4,21.8,15.6,96,65,35,29.77,29.70,9,2,13,0.00
2013-3-21,41.2,30.3,22.1,23.4,18.1,13.4,91,64,33,29.77,29.56,4,0,7,0.00
2013-3-22,38.5,31.2,21.4,23.6,19.7,15.1,82,63,46,29.78,29.63,7,1,11,0.00
2013-3-23,45.7,37.5,29.7,23.8,21.1,17.4,68,52,35,29.85,29.73,10,2,13,0.00
2013-3-24,46.4,35.9,26.4,26.2,23.0,17.4,81,61,41,29.87,29.67,3,0,7,0.00
2013-3-25,50.5,38.8,31.2,28.5,25.8,24.0,77,61,38,29.72,29.41,3,0,8,0.00
2013-3-26,48.3,38.9,30.0,34.2,28.5,24.0,86,67,40,29.79,29.51,3,0,6,0.00
2013-3-27,52.6,39.1,25.3,31.1,24.4,17.1,91,60,26,29.88,29.76,6,1,8,0.00
2013-3-28,49.4,41.4,32.9,35.2,31.4,22.6,83,68,52,30.03,29.87,5,0,8,0.00
2013-3-29,53.8,42.2,29.3,31.8,29.1,26.4,91,62,40,30.07,29.98,7,0,8,0.00
2013-3-30,42.8,33.9,29.3,32.2,28.6,26.3,91,81,64,30.09,30.04,2,0,3,0.00